Time;durP1;ratioP1;P1;durP2;ratioP2;P2;SDS_P1;SDS_P2;PMS_P1;PMS_P2;Temp;Humidity;BMP_temperature;BMP_pressure;BME280_temperature;BME280_humidity;BME280_pressure;Samples;Min_cycle;Max_cycle;Signal;HPM_P1;HPM_P2
2022/11/22 00:00:28;;;;;;;22.13;12.77;;;3.10;99.90;;;;;;5093809;28;20094;-75
2022/11/22 00:02:54;;;;;;;23.30;14.25;;;3.10;99.90;;;;;;5093595;28;20496;-75
2022/11/22 00:05:20;;;;;;;26.70;14.75;;;3.10;99.90;;;;;;5093727;28;20051;-75
2022/11/22 00:07:46;;;;;;;23.95;13.88;;;3.10;99.90;;;;;;5093646;28;20036;-76
2022/11/22 00:10:13;;;;;;;25.88;13.52;;;3.10;99.90;;;;;;5093533;28;20032;-76
2022/11/22 00:12:39;;;;;;;27.45;13.90;;;3.10;99.90;;;;;;5094180;28;20448;-75
2022/11/22 00:15:05;;;;;;;25.10;13.53;;;3.10;99.90;;;;;;5093397;28;20633;-74
2022/11/22 00:17:32;;;;;;;22.77;13.33;;;3.00;99.90;;;;;;5093656;28;20040;-75
2022/11/22 00:19:57;;;;;;;24.65;13.88;;;3.10;99.90;;;;;;5093733;28;20044;-75
2022/11/22 00:22:23;;;;;;;22.88;13.68;;;3.00;99.90;;;;;;5093563;28;20044;-75
2022/11/22 00:24:50;;;;;;;22.88;13.80;;;3.00;99.90;;;;;;5093467;28;20109;-76
2022/11/22 00:27:16;;;;;;;25.58;14.18;;;3.00;99.90;;;;;;5093395;28;20089;-73
2022/11/22 00:29:42;;;;;;;21.45;13.93;;;3.10;99.90;;;;;;5093506;28;20048;-74
2022/11/22 00:32:07;;;;;;;26.15;14.57;;;3.00;99.90;;;;;;5093571;28;20040;-74
2022/11/22 00:34:33;;;;;;;27.55;14.88;;;3.00;99.90;;;;;;5093422;28;20074;-74
2022/11/22 00:36:58;;;;;;;26.70;15.30;;;3.00;99.90;;;;;;5093351;28;20043;-76
2022/11/22 00:39:24;;;;;;;27.35;14.68;;;3.00;99.90;;;;;;5093088;28;20051;-74
2022/11/22 00:41:50;;;;;;;23.88;14.90;;;2.90;99.90;;;;;;5093410;28;20544;-74
2022/11/22 00:44:15;;;;;;;25.17;14.38;;;2.90;99.90;;;;;;5095002;28;20055;-75
2022/11/22 00:46:41;;;;;;;27.75;15.02;;;2.90;99.90;;;;;;5097526;28;20597;-75
2022/11/22 00:49:06;;;;;;;25.42;14.25;;;2.90;99.90;;;;;;5097307;28;20040;-74
2022/11/22 00:51:32;;;;;;;29.30;15.35;;;2.90;99.90;;;;;;5097346;28;20484;-75
2022/11/22 00:53:57;;;;;;;29.73;15.15;;;2.90;99.90;;;;;;5097287;28;20044;-74
2022/11/22 00:56:23;;;;;;;26.75;14.75;;;3.00;99.90;;;;;;5097111;28;20036;-74
2022/11/22 00:58:49;;;;;;;27.35;14.75;;;2.90;99.90;;;;;;5097058;28;20093;-75
2022/11/22 01:01:14;;;;;;;26.02;15.52;;;3.00;99.90;;;;;;5097027;28;20407;-75
2022/11/22 01:03:40;;;;;;;27.15;15.52;;;2.90;99.90;;;;;;5096947;28;20063;-74
2022/11/22 01:06:05;;;;;;;29.35;15.95;;;2.90;99.90;;;;;;5096890;28;20044;-75
2022/11/22 01:08:31;;;;;;;27.55;15.23;;;2.90;99.90;;;;;;5096686;28;20087;-75
2022/11/22 01:10:57;;;;;;;29.30;15.82;;;3.00;99.90;;;;;;5096833;28;20043;-74
2022/11/22 01:13:24;;;;;;;29.00;14.85;;;3.00;99.90;;;;;;5096824;28;20059;-75
2022/11/22 01:15:49;;;;;;;27.17;14.82;;;3.00;99.90;;;;;;5096509;28;20055;-74
2022/11/22 01:18:15;;;;;;;25.95;14.82;;;3.00;99.90;;;;;;5096978;28;20036;-75
2022/11/22 01:20:40;;;;;;;27.83;14.75;;;3.00;99.90;;;;;;5096660;28;20044;-75
2022/11/22 01:23:06;;;;;;;31.05;16.65;;;3.00;99.90;;;;;;5096495;28;20549;-76
2022/11/22 01:25:32;;;;;;;28.17;14.77;;;3.00;99.90;;;;;;5096823;28;20051;-74
2022/11/22 01:27:58;;;;;;;25.83;14.48;;;3.00;99.90;;;;;;5096189;28;20094;-75
2022/11/22 01:30:23;;;;;;;26.00;15.23;;;3.00;99.90;;;;;;5096448;28;20040;-75
2022/11/22 01:32:49;;;;;;;28.52;15.32;;;3.10;99.90;;;;;;5096414;28;20047;-75
2022/11/22 01:35:14;;;;;;;23.98;14.48;;;3.00;99.90;;;;;;5096411;28;20040;-75
2022/11/22 01:37:40;;;;;;;25.60;14.77;;;3.10;99.90;;;;;;5096233;28;20084;-75
2022/11/22 01:40:06;;;;;;;28.10;14.88;;;3.10;99.90;;;;;;5096729;28;20075;-74
2022/11/22 01:42:48;;;;;;;29.75;14.48;;;3.10;99.90;;;;;;5095997;28;20555;-74
2022/11/22 01:45:29;;;;;;;33.58;16.58;;;3.10;99.90;;;;;;5096210;28;20036;-75
2022/11/22 01:48:14;;;;;;;25.73;15.45;;;3.10;99.90;;;;;;5096118;28;20044;-75
2022/11/22 01:50:42;;;;;;;24.73;14.38;;;3.10;99.90;;;;;;5096753;28;20063;-75
2022/11/22 01:53:44;;;;;;;27.90;14.30;;;3.20;99.90;;;;;;5096454;28;20384;-76
2022/11/22 01:56:14;;;;;;;26.20;14.52;;;4.10;99.90;;;;;;5013615;28;20046;-74
2022/11/22 01:58:41;;;;;;;24.45;14.02;;;3.50;99.90;;;;;;5081440;28;20400;-75
2022/11/22 02:01:07;;;;;;;24.88;14.43;;;3.20;99.90;;;;;;5095789;28;20043;-74
2022/11/22 02:03:36;;;;;;;29.08;15.48;;;3.20;99.90;;;;;;5095731;28;20074;-76
2022/11/22 02:06:03;;;;;;;25.50;14.52;;;3.20;99.90;;;;;;5095774;28;20093;-75
2022/11/22 02:08:54;;;;;;;25.05;14.52;;;3.20;99.90;;;;;;5095692;28;20392;-75
2022/11/22 02:11:22;;;;;;;25.30;14.38;;;3.30;99.90;;;;;;5095609;28;20087;-74
2022/11/22 02:13:50;;;;;;;24.83;14.65;;;3.30;99.90;;;;;;5095678;28;20052;-75
2022/11/22 02:16:16;;;;;;;29.35;15.25;;;3.30;99.90;;;;;;5095113;28;20080;-75
2022/11/22 02:18:41;;;;;;;28.73;14.90;;;3.30;99.90;;;;;;5095551;28;20495;-75
2022/11/22 02:21:08;;;;;;;25.88;14.48;;;3.30;99.90;;;;;;5095478;28;20134;-74
2022/11/22 02:23:59;;;;;;;27.00;13.20;;;3.30;99.90;;;;;;5095195;28;20490;-74
2022/11/22 02:26:27;;;;;;;26.42;14.60;;;3.30;99.90;;;;;;5095348;28;20480;-75
2022/11/22 02:28:59;;;;;;;25.75;15.57;;;3.30;99.90;;;;;;5095334;28;20043;-75
2022/11/22 02:31:41;;;;;;;24.52;14.52;;;3.30;99.90;;;;;;5095342;28;20044;-76
2022/11/22 02:34:11;;;;;;;26.23;14.00;;;3.90;99.90;;;;;;5095305;28;20086;-75
2022/11/22 02:36:42;;;;;;;28.52;15.38;;;3.30;99.90;;;;;;5095120;28;20131;-76
2022/11/22 02:39:11;;;;;;;26.25;15.07;;;3.30;99.90;;;;;;5095483;28;20112;-75
2022/11/22 02:41:38;;;;;;;29.38;15.60;;;3.40;99.90;;;;;;5095121;28;20048;-73
2022/11/22 02:44:06;;;;;;;31.75;14.88;;;3.40;99.90;;;;;;5095091;28;20048;-74
2022/11/22 02:46:31;;;;;;;27.10;14.50;;;3.40;99.90;;;;;;5094971;28;20483;-75
2022/11/22 02:48:57;;;;;;;25.30;14.63;;;3.40;99.90;;;;;;5094685;28;20065;-75
2022/11/22 02:51:23;;;;;;;29.63;14.70;;;3.40;99.90;;;;;;5094547;28;20403;-74
2022/11/22 02:53:51;;;;;;;26.30;14.30;;;3.40;99.90;;;;;;5095312;28;20119;-74
2022/11/22 02:56:17;;;;;;;25.25;14.35;;;3.40;99.90;;;;;;5094977;28;20126;-74
2022/11/22 02:58:43;;;;;;;25.63;13.97;;;3.40;99.90;;;;;;5094835;28;20050;-76
2022/11/22 03:01:10;;;;;;;27.15;14.40;;;3.50;99.90;;;;;;5094868;28;20301;-75
2022/11/22 03:03:35;;;;;;;23.58;13.75;;;3.40;99.90;;;;;;5094651;28;20086;-76
2022/11/22 03:06:01;;;;;;;28.38;14.90;;;3.50;99.90;;;;;;5110504;28;20047;-76
2022/11/22 03:08:27;;;;;;;24.25;13.43;;;3.50;99.90;;;;;;5094097;28;20036;-75
2022/11/22 03:10:52;;;;;;;24.58;12.95;;;3.50;99.90;;;;;;5094339;28;20410;-76
2022/11/22 03:13:18;;;;;;;24.23;13.07;;;3.60;99.90;;;;;;5093537;28;20048;-75
2022/11/22 03:15:46;;;;;;;27.30;14.45;;;3.60;99.90;;;;;;5094464;28;20111;-76
2022/11/22 03:18:12;;;;;;;26.45;14.88;;;3.60;99.90;;;;;;5094386;28;20036;-75
2022/11/22 03:20:37;;;;;;;24.98;13.90;;;3.60;99.90;;;;;;5094365;28;20093;-75
2022/11/22 03:23:03;;;;;;;23.95;13.50;;;3.70;99.90;;;;;;5094645;28;20086;-73
2022/11/22 03:25:28;;;;;;;22.38;13.60;;;3.80;99.90;;;;;;5094524;28;20135;-76
2022/11/22 03:27:55;;;;;;;27.48;13.65;;;3.70;99.90;;;;;;5094187;28;20484;-73
2022/11/22 03:30:20;;;;;;;27.05;13.25;;;3.70;99.90;;;;;;5094226;28;20101;-75
2022/11/22 03:32:46;;;;;;;23.63;13.27;;;3.70;99.90;;;;;;5094068;28;20040;-74
2022/11/22 03:35:11;;;;;;;23.70;13.02;;;3.70;99.90;;;;;;5094090;28;20044;-75
2022/11/22 03:37:37;;;;;;;24.85;13.43;;;3.80;99.90;;;;;;5093757;28;20043;-74
2022/11/22 03:40:04;;;;;;;24.48;13.63;;;3.70;99.90;;;;;;5094024;28;20040;-74
2022/11/22 03:42:29;;;;;;;21.65;13.23;;;3.80;99.90;;;;;;5093928;28;20048;-73
2022/11/22 03:44:55;;;;;;;24.83;13.52;;;3.80;99.90;;;;;;5093911;28;20147;-75
2022/11/22 03:47:20;;;;;;;23.95;13.80;;;3.80;99.90;;;;;;5093742;28;20432;-74
2022/11/22 03:49:46;;;;;;;31.92;14.52;;;3.80;99.90;;;;;;5093869;28;20121;-73
2022/11/22 03:52:12;;;;;;;29.55;13.90;;;3.80;99.90;;;;;;5094368;28;20036;-76
2022/11/22 03:54:37;;;;;;;24.75;14.35;;;3.80;99.90;;;;;;5093759;28;20408;-75
2022/11/22 03:57:03;;;;;;;30.23;13.77;;;3.80;99.90;;;;;;5093863;28;20047;-75
2022/11/22 03:59:29;;;;;;;21.85;13.10;;;3.90;99.90;;;;;;5094128;28;20040;-75
2022/11/22 04:01:54;;;;;;;23.35;13.52;;;3.90;99.90;;;;;;5093624;28;20496;-75
2022/11/22 04:04:20;;;;;;;26.73;12.90;;;3.90;99.90;;;;;;5093639;28;20047;-75
2022/11/22 04:06:45;;;;;;;22.30;12.95;;;3.90;99.90;;;;;;5093634;28;20036;-74
2022/11/22 04:09:11;;;;;;;25.92;13.15;;;4.50;99.90;;;;;;5093574;28;20041;-75
2022/11/22 04:11:36;;;;;;;25.80;13.30;;;3.90;99.90;;;;;;5093534;28;20396;-74
2022/11/22 04:16:46;;;;;;;23.92;13.07;;;3.90;99.90;;;;;;5093585;28;20097;-76
2022/11/22 04:19:12;;;;;;;21.83;12.20;;;4.60;99.90;;;;;;5094585;28;20040;-75
2022/11/22 04:21:37;;;;;;;22.13;11.20;;;3.90;99.90;;;;;;5097932;28;20369;-74
2022/11/22 04:26:55;;;;;;;24.08;12.60;;;4.00;99.90;;;;;;5097688;28;20131;-75
2022/11/22 04:29:21;;;;;;;21.45;10.95;;;4.00;99.90;;;;;;5097586;28;20067;-76
2022/11/22 04:34:33;;;;;;;23.17;12.32;;;4.00;99.90;;;;;;5097560;28;20282;-76
2022/11/22 04:36:59;;;;;;;24.73;11.60;;;4.00;99.90;;;;;;5097632;28;20044;-74
2022/11/22 04:39:25;;;;;;;19.97;12.03;;;4.30;99.90;;;;;;5097549;28;20040;-76
2022/11/22 04:44:39;;;;;;;19.80;12.77;;;4.00;99.90;;;;;;5097333;28;20286;-74
2022/11/22 04:44:40;;;;;;;23.00;12.00;;;4.10;99.90;;;;;;5097379;28;20048;-74
2022/11/22 04:47:09;;;;;;;25.80;12.75;;;4.10;99.90;;;;;;5097367;28;20441;-75
2022/11/22 04:49:35;;;;;;;27.30;14.07;;;4.10;99.90;;;;;;5097230;28;20036;-75
2022/11/22 04:54:46;;;;;;;24.65;13.35;;;4.10;99.90;;;;;;5096904;28;20500;-73
2022/11/22 04:57:11;;;;;;;27.20;12.80;;;4.10;99.90;;;;;;5097101;28;20132;-74
2022/11/22 04:59:37;;;;;;;18.05;11.60;;;4.10;99.90;;;;;;5097529;28;20050;-75
2022/11/22 05:02:03;;;;;;;21.42;12.15;;;4.20;99.90;;;;;;5097167;28;20055;-74
2022/11/22 05:04:28;;;;;;;21.50;12.48;;;4.20;99.90;;;;;;5096911;28;20502;-74
2022/11/22 05:06:55;;;;;;;20.60;12.52;;;4.20;99.90;;;;;;5096968;28;20048;-76
2022/11/22 05:09:21;;;;;;;19.08;12.77;;;4.20;99.90;;;;;;5097192;28;20392;-75
2022/11/22 05:11:46;;;;;;;20.80;12.35;;;4.30;99.90;;;;;;5097289;28;20044;-74
2022/11/22 05:14:12;;;;;;;21.33;12.43;;;4.30;99.90;;;;;;5096760;28;20123;-75
2022/11/22 05:16:38;;;;;;;20.50;12.38;;;4.30;99.90;;;;;;5096805;28;20125;-74
2022/11/22 05:19:03;;;;;;;20.27;12.52;;;4.30;99.90;;;;;;5095672;28;20055;-75
2022/11/22 05:21:29;;;;;;;24.48;12.35;;;4.30;99.90;;;;;;5096587;28;20075;-75
2022/11/22 05:23:55;;;;;;;21.55;13.20;;;4.30;99.90;;;;;;5095561;28;20055;-75
2022/11/22 05:26:24;;;;;;;23.98;13.45;;;4.40;99.90;;;;;;5096626;28;20044;-74
2022/11/22 05:28:51;;;;;;;19.98;12.05;;;4.40;99.90;;;;;;5096765;28;20055;-75
2022/11/22 05:31:21;;;;;;;17.98;11.95;;;4.40;99.90;;;;;;5096174;28;20052;-73
2022/11/22 05:33:48;;;;;;;23.88;12.77;;;4.50;99.90;;;;;;5096565;28;20043;-75
2022/11/22 05:36:14;;;;;;;21.60;12.60;;;4.50;99.90;;;;;;5096448;28;20052;-74
2022/11/22 05:38:40;;;;;;;31.17;13.00;;;4.50;99.90;;;;;;5096025;28;20043;-74
2022/11/22 05:41:08;;;;;;;20.52;11.65;;;4.60;99.90;;;;;;5096028;28;20044;-74
2022/11/22 05:43:34;;;;;;;29.67;12.93;;;4.60;99.90;;;;;;5096602;28;20044;-75
2022/11/22 05:46:27;;;;;;;25.88;12.63;;;4.60;99.90;;;;;;5096274;28;20072;-74
2022/11/22 05:48:55;;;;;;;22.30;12.15;;;4.60;99.90;;;;;;5093177;28;20139;-74
2022/11/22 05:51:23;;;;;;;25.25;12.43;;;4.70;99.90;;;;;;5096118;28;20055;-74
2022/11/22 05:53:48;;;;;;;23.38;13.15;;;4.60;99.90;;;;;;5096071;28;20079;-74
2022/11/22 05:56:20;;;;;;;26.13;12.25;;;4.70;99.90;;;;;;5095912;28;20087;-76
2022/11/22 05:58:46;;;;;;;24.27;12.93;;;4.70;99.90;;;;;;5096056;28;20067;-74
2022/11/22 06:01:14;;;;;;;24.48;12.45;;;4.70;99.90;;;;;;5095767;28;20426;-74
2022/11/22 06:03:40;;;;;;;21.48;12.55;;;4.80;99.90;;;;;;5095991;28;20040;-76
2022/11/22 06:06:06;;;;;;;24.20;12.52;;;4.80;99.90;;;;;;5096306;28;20078;-75
2022/11/22 06:08:34;;;;;;;19.05;10.63;;;4.80;99.90;;;;;;5095818;28;20042;-75
2022/11/22 06:11:07;;;;;;;18.92;11.88;;;4.80;99.90;;;;;;5095845;28;20048;-76
2022/11/22 06:13:37;;;;;;;18.17;11.82;;;4.80;99.90;;;;;;5095788;28;20048;-76
2022/11/22 06:16:05;;;;;;;23.48;11.90;;;4.80;99.90;;;;;;5095800;28;20055;-75
2022/11/22 06:18:31;;;;;;;21.90;12.40;;;4.80;99.90;;;;;;5095616;28;20040;-79
2022/11/22 06:20:58;;;;;;;22.27;11.17;;;4.80;99.90;;;;;;5095654;28;20036;-74
2022/11/22 06:23:24;;;;;;;19.83;11.75;;;4.80;99.90;;;;;;5095797;28;20047;-76
2022/11/22 06:26:07;;;;;;;26.52;12.85;;;4.80;99.90;;;;;;5095320;28;20587;-74
2022/11/22 06:28:34;;;;;;;29.75;11.73;;;4.80;99.90;;;;;;5095444;28;20562;-75
2022/11/22 06:31:06;;;;;;;18.30;12.10;;;4.80;99.90;;;;;;5095725;28;20036;-75
2022/11/22 06:33:32;;;;;;;30.05;12.85;;;4.80;99.90;;;;;;5095283;28;20123;-74
2022/11/22 06:36:06;;;;;;;26.40;12.75;;;4.90;99.90;;;;;;5095276;28;20090;-74
2022/11/22 06:38:32;;;;;;;24.80;12.52;;;4.80;99.90;;;;;;5095164;28;20040;-74
2022/11/22 06:41:06;;;;;;;25.73;12.02;;;4.80;99.90;;;;;;5094845;28;20036;-74
2022/11/22 06:43:33;;;;;;;23.65;11.75;;;4.90;99.90;;;;;;5094709;28;20081;-74
2022/11/22 06:45:59;;;;;;;;;;;4.80;99.90;;;;;;5094357;28;20044;-72
2022/11/22 06:48:28;;;;;;;22.23;11.70;;;4.80;99.90;;;;;;5094840;28;19927;-73
2022/11/22 06:50:58;;;;;;;20.30;11.60;;;4.90;99.90;;;;;;5095062;28;20051;-73
2022/11/22 06:53:29;;;;;;;22.40;11.85;;;4.90;99.90;;;;;;5094992;28;20063;-72
2022/11/22 06:56:10;;;;;;;21.30;10.82;;;4.90;99.90;;;;;;5095623;28;20130;-72
2022/11/22 06:58:36;;;;;;;28.80;12.30;;;4.90;99.90;;;;;;5095001;28;20177;-73
2022/11/22 07:01:06;;;;;;;22.73;11.30;;;4.90;99.90;;;;;;5093812;28;20403;-72
2022/11/22 07:03:33;;;;;;;22.70;11.23;;;4.90;99.90;;;;;;5094731;28;20047;-72
2022/11/22 07:05:59;;;;;;;22.30;10.93;;;5.00;99.90;;;;;;5094466;28;20032;-73
2022/11/22 07:08:25;;;;;;;20.02;10.80;;;5.00;99.90;;;;;;5094598;28;20043;-73
2022/11/22 07:10:50;;;;;;;20.88;11.00;;;5.00;99.90;;;;;;5095034;28;20040;-72
2022/11/22 07:13:16;;;;;;;22.90;10.75;;;5.00;99.90;;;;;;5094606;28;20438;-73
2022/11/22 07:15:42;;;;;;;25.75;10.98;;;5.00;99.90;;;;;;5094685;28;20587;-76
2022/11/22 07:18:07;;;;;;;18.92;9.90;;;4.90;99.90;;;;;;5094631;28;20036;-74
2022/11/22 07:20:33;;;;;;;21.63;10.27;;;5.60;99.90;;;;;;5094406;28;20498;-74
2022/11/22 07:22:58;;;;;;;20.25;9.65;;;4.90;99.90;;;;;;5094492;28;20089;-74
2022/11/22 07:25:24;;;;;;;20.38;9.43;;;4.90;99.90;;;;;;5094616;28;20142;-74
2022/11/22 07:27:52;;;;;;;20.80;9.60;;;4.90;99.90;;;;;;5094205;28;20044;-73
2022/11/22 07:30:19;;;;;;;19.63;9.00;;;4.90;99.90;;;;;;5094349;28;20044;-73
2022/11/22 07:32:48;;;;;;;19.60;8.63;;;4.90;99.90;;;;;;5094239;28;20545;-73
2022/11/22 07:35:13;;;;;;;17.48;8.48;;;5.00;99.90;;;;;;5094284;28;20399;-74
2022/11/22 07:37:39;;;;;;;18.08;7.50;;;5.00;99.90;;;;;;5094267;28;20040;-79
2022/11/22 07:40:05;;;;;;;18.00;7.72;;;5.10;99.90;;;;;;5094157;28;20040;-76
2022/11/22 07:42:31;;;;;;;16.33;6.80;;;5.10;99.90;;;;;;5094015;28;20044;-74
2022/11/22 07:44:56;;;;;;;22.63;6.75;;;5.10;99.90;;;;;;5094263;28;20665;-77
2022/11/22 07:47:22;;;;;;;17.25;6.60;;;5.10;99.90;;;;;;5094302;28;20039;-76
2022/11/22 07:49:47;;;;;;;17.65;5.65;;;5.10;99.90;;;;;;5094053;28;20086;-76
2022/11/22 07:52:13;;;;;;;17.52;5.72;;;5.10;99.90;;;;;;5093671;28;20051;-79
2022/11/22 07:54:38;;;;;;;17.58;4.90;;;5.00;99.90;;;;;;5093782;28;20173;-76
2022/11/22 07:57:04;;;;;;;16.70;5.18;;;5.00;99.90;;;;;;5093983;28;20044;-75
2022/11/22 07:59:29;;;;;;;17.88;5.43;;;5.00;99.90;;;;;;5093833;28;20353;-75
2022/11/22 08:01:55;;;;;;;15.60;4.82;;;5.00;99.90;;;;;;5093862;28;20130;-74
2022/11/22 08:04:20;;;;;;;17.52;4.95;;;5.00;99.90;;;;;;5093789;28;20051;-75
2022/11/22 08:06:46;;;;;;;15.57;4.60;;;5.00;99.90;;;;;;5093599;28;20036;-75
2022/11/22 08:09:12;;;;;;;16.63;5.63;;;4.90;99.90;;;;;;5093423;28;20086;-74
2022/11/22 08:11:37;;;;;;;16.65;4.80;;;4.90;99.90;;;;;;5094402;28;20044;-80
2022/11/22 08:14:03;;;;;;;20.10;5.22;;;4.90;99.90;;;;;;5093377;28;20048;-77
2022/11/22 08:16:29;;;;;;;11.23;4.57;;;4.90;99.90;;;;;;5094061;28;20046;-77
2022/11/22 08:18:54;;;;;;;16.00;4.53;;;4.90;99.90;;;;;;5094195;28;20041;-76
2022/11/22 08:21:20;;;;;;;16.15;4.68;;;4.90;99.90;;;;;;5094044;28;20055;-76
2022/11/22 08:23:47;;;;;;;13.98;4.90;;;4.90;99.90;;;;;;5093877;28;20036;-76
2022/11/22 08:26:14;;;;;;;14.90;4.32;;;4.90;99.90;;;;;;5094289;28;20036;-77
2022/11/22 08:28:41;;;;;;;11.43;4.22;;;4.90;99.90;;;;;;5093596;28;20036;-75
2022/11/22 08:31:16;;;;;;;14.30;4.03;;;5.80;99.90;;;;;;5093560;28;20062;-76
2022/11/22 08:33:42;;;;;;;11.32;4.13;;;4.90;99.90;;;;;;5093633;28;20051;-78
2022/11/22 08:36:08;;;;;;;18.08;3.90;;;5.00;99.90;;;;;;5093549;28;20384;-69
2022/11/22 08:38:34;;;;;;;12.70;4.25;;;5.00;99.90;;;;;;5093620;28;20046;-75
2022/11/22 08:41:00;;;;;;;13.88;4.18;;;5.00;99.90;;;;;;5093836;28;20048;-80
2022/11/22 08:43:26;;;;;;;14.52;4.03;;;5.10;99.90;;;;;;5093573;28;20052;-76
2022/11/22 08:45:57;;;;;;;18.73;4.00;;;5.10;99.90;;;;;;5093478;28;20046;-79
2022/11/22 08:48:24;;;;;;;13.80;3.88;;;5.10;99.90;;;;;;5092967;28;20400;-75
2022/11/22 08:50:52;;;;;;;11.45;3.70;;;5.10;99.90;;;;;;5093382;28;20114;-76
2022/11/22 08:53:17;;;;;;;10.80;3.45;;;5.10;99.90;;;;;;5093442;28;20036;-76
2022/11/22 08:55:43;;;;;;;16.35;4.82;;;5.20;99.90;;;;;;5093391;28;20040;-75
2022/11/22 08:58:08;;;;;;;13.95;3.95;;;5.20;99.90;;;;;;5093332;28;20047;-76
2022/11/22 09:00:34;;;;;;;11.43;4.15;;;5.30;99.90;;;;;;5093284;28;20048;-77
2022/11/22 09:02:59;;;;;;;13.00;3.67;;;5.30;99.90;;;;;;5093150;28;20045;-76
2022/11/22 09:05:25;;;;;;;11.00;3.72;;;5.30;99.90;;;;;;5094525;28;20059;-75
2022/11/22 09:07:51;;;;;;;8.75;4.00;;;5.40;99.90;;;;;;5096934;28;20036;-75
2022/11/22 09:10:16;;;;;;;16.73;4.05;;;5.40;99.90;;;;;;5097191;28;20042;-75
2022/11/22 09:12:44;;;;;;;13.85;3.97;;;5.40;99.90;;;;;;5096873;28;20039;-75
2022/11/22 09:15:10;;;;;;;14.50;3.67;;;5.50;99.90;;;;;;5097119;28;20044;-76
2022/11/22 09:17:36;;;;;;;10.98;3.38;;;5.50;99.90;;;;;;5096875;28;20044;-75
2022/11/22 09:20:02;;;;;;;14.50;4.20;;;5.50;99.90;;;;;;5096628;28;20044;-76
2022/11/22 09:22:27;;;;;;;10.10;3.70;;;5.60;99.90;;;;;;5097287;28;20044;-75
2022/11/22 09:24:53;;;;;;;12.18;4.03;;;6.50;99.90;;;;;;5095319;28;20066;-74
2022/11/22 09:27:19;;;;;;;10.95;3.78;;;5.70;99.90;;;;;;5096174;28;20036;-75
2022/11/22 09:29:44;;;;;;;11.90;3.17;;;5.70;99.90;;;;;;5096411;28;20480;-74
2022/11/22 09:32:10;;;;;;;8.90;3.25;;;5.80;99.90;;;;;;5096194;28;20047;-75
2022/11/22 09:34:36;;;;;;;11.88;3.75;;;5.90;99.90;;;;;;5095978;28;20048;-75
2022/11/22 09:37:01;;;;;;;12.02;3.45;;;6.50;99.90;;;;;;5096240;28;20051;-75
2022/11/22 09:39:27;;;;;;;10.57;3.35;;;6.00;99.90;;;;;;5096350;28;20123;-75
2022/11/22 09:42:10;;;;;;;11.68;3.20;;;6.10;99.90;;;;;;5096151;28;20423;-75
2022/11/22 09:44:57;;;;;;;14.15;3.25;;;6.10;99.90;;;;;;5096120;28;20450;-75
2022/11/22 09:47:51;;;;;;;14.02;3.50;;;6.20;99.90;;;;;;5096138;28;20079;-75
2022/11/22 09:50:32;;;;;;;10.20;3.78;;;6.20;99.90;;;;;;5095749;28;20040;-75
2022/11/22 09:53:23;;;;;;;11.50;3.47;;;6.30;99.90;;;;;;5095892;28;20044;-75
2022/11/22 09:55:54;;;;;;;9.48;3.60;;;6.40;99.90;;;;;;5087229;28;20472;-75
2022/11/22 09:58:41;;;;;;;9.43;3.00;;;6.40;99.90;;;;;;5094734;28;20044;-74
2022/11/22 10:01:21;;;;;;;11.18;3.20;;;6.50;99.90;;;;;;5095733;28;20469;-75
2022/11/22 10:04:01;;;;;;;9.15;3.17;;;6.50;99.90;;;;;;5095305;28;20400;-75
2022/11/22 10:06:37;;;;;;;10.40;3.45;;;6.50;99.90;;;;;;5095875;28;20048;-75
2022/11/22 10:09:34;;;;;;;12.68;3.53;;;6.50;99.90;;;;;;5095676;28;20044;-75
2022/11/22 10:12:25;;;;;;;9.57;3.08;;;6.60;99.90;;;;;;5095618;28;20050;-75
2022/11/22 10:15:19;;;;;;;13.85;3.30;;;6.60;99.90;;;;;;5095676;28;20044;-76
2022/11/22 10:17:48;;;;;;;7.07;2.92;;;6.60;99.90;;;;;;5070154;28;20052;-75
2022/11/22 10:20:19;;;;;;;10.30;2.92;;;6.60;99.90;;;;;;5095430;28;20052;-75
2022/11/22 10:22:45;;;;;;;17.60;3.47;;;6.60;99.90;;;;;;5095485;28;20068;-75
2022/11/22 10:25:33;;;;;;;8.70;2.95;;;6.60;99.90;;;;;;5095450;28;20058;-75
2022/11/22 10:28:09;;;;;;;7.80;2.58;;;6.70;99.90;;;;;;5085304;28;20385;-75
2022/11/22 10:30:41;;;;;;;8.20;2.55;;;6.70;99.90;;;;;;5095274;28;20052;-75
2022/11/22 10:33:17;;;;;;;5.88;2.42;;;6.70;99.90;;;;;;5094897;28;20040;-75
2022/11/22 10:36:11;;;;;;;8.65;2.25;;;6.80;99.90;;;;;;5095230;28;20036;-75
2022/11/22 10:38:58;;;;;;;6.97;2.55;;;6.80;99.90;;;;;;5095326;28;20040;-75
2022/11/22 10:41:29;;;;;;;9.45;2.78;;;6.90;99.90;;;;;;5094876;28;20044;-75
2022/11/22 10:44:30;;;;;;;6.18;2.30;;;7.10;99.90;;;;;;5095018;28;20056;-76
2022/11/22 10:47:07;;;;;;;11.05;2.85;;;7.10;99.90;;;;;;5094570;28;20463;-75
2022/11/22 10:49:59;;;;;;;7.43;2.47;;;7.20;99.90;;;;;;5094277;28;20089;-75
2022/11/22 10:52:42;;;;;;;11.77;2.83;;;7.20;99.90;;;;;;5094806;28;20051;-76
2022/11/22 10:55:39;;;;;;;7.10;2.80;;;7.20;99.90;;;;;;5094809;28;20091;-75
2022/11/22 10:58:14;;;;;;;10.20;2.58;;;7.20;99.90;;;;;;5094667;28;20131;-75
2022/11/22 11:00:45;;;;;;;9.02;2.72;;;7.30;99.90;;;;;;5094643;28;20525;-75
2022/11/22 11:03:25;;;;;;;10.55;2.60;;;7.30;99.90;;;;;;5094585;28;20044;-75
2022/11/22 11:06:11;;;;;;;11.00;2.42;;;7.30;99.90;;;;;;5094920;28;20040;-75
2022/11/22 11:08:44;;;;;;;7.63;2.40;;;7.30;99.90;;;;;;5094500;28;20130;-74
2022/11/22 11:11:12;;;;;;;9.90;2.58;;;7.30;99.90;;;;;;5094609;28;20594;-76
2022/11/22 11:13:45;;;;;;;11.00;2.35;;;7.30;99.90;;;;;;5093168;28;20043;-75
2022/11/22 11:16:18;;;;;;;6.57;2.30;;;7.30;99.90;;;;;;5094011;28;20036;-76
2022/11/22 11:19:05;;;;;;;8.93;2.65;;;7.40;99.90;;;;;;5094297;28;20067;-76
2022/11/22 11:21:30;;;;;;;7.82;2.25;;;7.40;99.90;;;;;;5094236;28;20078;-82
2022/11/22 11:23:56;;;;;;;8.57;2.97;;;7.50;99.90;;;;;;5093808;28;20056;-76
2022/11/22 11:26:28;;;;;;;10.45;2.35;;;7.50;99.90;;;;;;5093942;28;20055;-76
2022/11/22 11:29:16;;;;;;;9.40;2.55;;;7.60;99.90;;;;;;5093496;28;20048;-75
2022/11/22 11:31:43;;;;;;;6.07;2.63;;;7.60;99.90;;;;;;5093624;28;20438;-75
2022/11/22 11:34:25;;;;;;;5.93;2.13;;;7.60;99.90;;;;;;5094128;28;20048;-75
2022/11/22 11:36:55;;;;;;;6.80;3.05;;;7.60;99.90;;;;;;5092645;28;20538;-79
2022/11/22 11:39:36;;;;;;;8.20;2.58;;;7.60;99.90;;;;;;5094007;28;20040;-77
2022/11/22 11:42:30;;;;;;;9.38;2.40;;;7.50;99.90;;;;;;5093853;28;20036;-76
2022/11/22 11:45:14;;;;;;;9.73;2.45;;;7.60;99.90;;;;;;5093778;28;20046;-77
2022/11/22 11:47:40;;;;;;;7.00;2.70;;;7.60;99.90;;;;;;5093395;28;20456;-77
2022/11/22 11:50:20;;;;;;;6.55;2.70;;;7.60;99.90;;;;;;5093801;28;20047;-77
2022/11/22 11:53:14;;;;;;;9.75;2.50;;;7.60;99.90;;;;;;5093809;28;20047;-77
2022/11/22 11:55:39;;;;;;;9.98;2.60;;;7.60;99.90;;;;;;5092518;28;20047;-77
2022/11/22 11:58:19;;;;;;;5.80;2.60;;;7.70;99.90;;;;;;5093730;28;20127;-80
2022/11/22 12:00:45;;;;;;;9.43;3.08;;;7.70;99.90;;;;;;5093453;28;20043;-82
2022/11/22 12:03:15;;;;;;;5.50;3.13;;;7.70;99.90;;;;;;5093574;28;20047;-77
2022/11/22 12:05:41;;;;;;;9.25;2.63;;;7.90;99.90;;;;;;5093579;28;20089;-75
2022/11/22 12:08:33;;;;;;;6.40;2.35;;;7.70;99.90;;;;;;5093568;28;20032;-76
2022/11/22 12:11:05;;;;;;;7.30;2.33;;;7.80;99.90;;;;;;5090392;28;20052;-76
2022/11/22 12:14:02;;;;;;;7.65;2.28;;;7.70;99.90;;;;;;5093217;28;20123;-76
2022/11/22 12:16:50;;;;;;;9.48;2.53;;;7.70;99.90;;;;;;5090229;28;20110;-76
2022/11/22 12:19:59;;;;;;;6.05;3.05;;;7.70;99.90;;;;;;5092656;28;20101;-76
2022/11/22 12:22:40;;;;;;;7.38;2.42;;;7.70;99.90;;;;;;5092216;28;20529;-77
2022/11/22 12:25:35;;;;;;;10.30;2.60;;;7.70;99.90;;;;;;5093246;28;20052;-76
2022/11/22 12:28:18;;;;;;;8.13;2.40;;;7.70;99.90;;;;;;5093018;28;20048;-76
2022/11/22 12:30:46;;;;;;;5.63;2.50;;;7.80;99.90;;;;;;5093470;28;20036;-75
2022/11/22 12:33:21;;;;;;;8.63;2.25;;;7.80;99.90;;;;;;5093540;28;20145;-76
2022/11/22 12:35:48;;;;;;;6.55;2.60;;;7.80;99.90;;;;;;5093452;28;20399;-76
2022/11/22 12:38:22;;;;;;;7.78;2.70;;;7.80;99.90;;;;;;5093303;28;20189;-74
2022/11/22 12:40:55;;;;;;;9.48;2.70;;;7.80;99.90;;;;;;5095360;28;20048;-74
2022/11/22 12:43:34;;;;;;;8.27;2.97;;;7.80;99.90;;;;;;5097256;28;20125;-75
2022/11/22 12:46:10;;;;;;;11.55;2.58;;;7.80;99.90;;;;;;5097383;28;20054;-75
2022/11/22 12:48:44;;;;;;;7.15;2.20;;;7.70;99.90;;;;;;5097229;28;20063;-74
2022/11/22 12:51:22;;;;;;;5.60;2.30;;;7.70;99.90;;;;;;5097248;28;20055;-76
2022/11/22 12:53:49;;;;;;;6.07;2.00;;;7.70;99.90;;;;;;5097084;28;20044;-75
2022/11/22 12:56:34;;;;;;;6.25;1.85;;;7.80;99.90;;;;;;5097084;28;20123;-76
2022/11/22 12:59:20;;;;;;;5.22;1.85;;;7.60;99.90;;;;;;5096918;28;20062;-75
2022/11/22 13:02:13;;;;;;;5.40;2.00;;;7.60;99.90;;;;;;5096967;28;20052;-76
2022/11/22 13:04:53;;;;;;;4.22;1.80;;;7.60;99.90;;;;;;5097017;28;20396;-75
2022/11/22 13:07:24;;;;;;;5.47;2.00;;;7.60;99.90;;;;;;5095727;28;20036;-74
2022/11/22 13:10:00;;;;;;;9.20;2.20;;;7.60;99.90;;;;;;5096665;28;20079;-75